Time;durP1;ratioP1;P1;durP2;ratioP2;P2;SDS_P1;SDS_P2;PMS_P1;PMS_P2;Temp;Humidity;BMP_temperature;BMP_pressure;BME280_temperature;BME280_humidity;BME280_pressure;Samples;Min_cycle;Max_cycle;Signal;HPM_P1;HPM_P2
2022/04/22 00:02:14;;;;;;;;;;;6.10;99.90;;;;;;5112481;28;19968;-72
2022/04/22 00:04:39;;;;;;;;;;;7.40;99.90;;;;;;5112371;28;19908;-72
2022/04/22 00:07:05;;;;;;;;;;;6.20;99.90;;;;;;5112073;28;19923;-73
2022/04/22 00:09:31;;;;;;;;;;;6.20;99.90;;;;;;5111930;28;20375;-72
2022/04/22 00:11:56;;;;;;;;;;;6.00;99.90;;;;;;5112206;28;19920;-71
2022/04/22 00:14:22;;;;;;;;;;;6.00;99.90;;;;;;5112603;28;19961;-73
2022/04/22 00:16:48;;;;;;;;;;;5.90;99.90;;;;;;5112034;28;19959;-73
2022/04/22 00:19:14;;;;;;;;;;;5.10;99.90;;;;;;5112009;28;20327;-73
2022/04/22 00:21:42;;;;;;;;;;;5.90;99.90;;;;;;5111904;28;19922;-72
2022/04/22 00:24:07;;;;;;;;;;;5.90;99.90;;;;;;5112017;28;19915;-74
2022/04/22 00:26:33;;;;;;;;;;;5.90;99.90;;;;;;5112019;28;19916;-72
2022/04/22 00:28:58;;;;;;;;;;;5.90;99.90;;;;;;5111847;28;19923;-73
2022/04/22 00:31:24;;;;;;;;;;;5.90;99.90;;;;;;5093443;28;20317;-72
2022/04/22 00:33:49;;;;;;;;;;;6.10;99.90;;;;;;5111737;28;19912;-72
2022/04/22 00:36:15;;;;;;;;;;;5.90;99.90;;;;;;5111975;28;19915;-72
2022/04/22 00:38:41;;;;;;;;;;;5.90;99.90;;;;;;5111592;28;19962;-72
2022/04/22 00:41:06;;;;;;;;;;;5.90;99.90;;;;;;5111683;28;20363;-72
2022/04/22 00:43:42;;;;;;;;;;;5.90;99.90;;;;;;5111743;28;19915;-73
2022/04/22 00:46:08;;;;;;;;;;;5.80;99.90;;;;;;5111610;28;19908;-72
2022/04/22 00:48:33;;;;;;;;;;;5.80;99.90;;;;;;5111619;28;19914;-72
2022/04/22 00:50:59;;;;;;;;;;;5.90;99.90;;;;;;5093055;28;20385;-72
2022/04/22 00:53:25;;;;;;;;;;;5.80;99.90;;;;;;5111610;28;19915;-72
2022/04/22 00:55:51;;;;;;;;;;;5.80;99.90;;;;;;5111435;28;20401;-72
2022/04/22 00:58:16;;;;;;;;;;;5.80;99.90;;;;;;5112008;28;19923;-73
2022/04/22 01:00:42;;;;;;;;;;;5.80;99.90;;;;;;5111428;28;20352;-72
2022/04/22 01:03:07;;;;;;;;;;;5.80;99.90;;;;;;5111489;28;19916;-72
2022/04/22 01:11:02;;;;;;;;;;;5.80;99.90;;;;;;5114836;28;19927;-73
2022/04/22 01:13:27;;;;;;;;;;;5.80;99.90;;;;;;5115683;28;19935;-72
2022/04/22 01:15:53;;;;;;;;;;;5.80;99.90;;;;;;5097628;28;19950;-72
2022/04/22 01:18:18;;;;;;;;;;;5.80;99.90;;;;;;5097255;28;19969;-73
2022/04/22 01:20:44;;;;;;;;;;;5.80;99.90;;;;;;5096975;28;20344;-72
2022/04/22 01:23:10;;;;;;;;;;;5.80;99.90;;;;;;5115758;28;19965;-73
2022/04/22 01:25:35;;;;;;;;;;;5.80;99.90;;;;;;5115280;28;19951;-73
2022/04/22 01:28:01;;;;;;;;;;;5.80;99.90;;;;;;5097016;28;19911;-73
2022/04/22 01:30:26;;;;;;;;;;;5.70;99.90;;;;;;5097040;28;20006;-73
2022/04/22 01:32:54;;;;;;;;;;;5.70;99.90;;;;;;5115135;28;19920;-72
2022/04/22 01:35:19;;;;;;;;;;;5.70;99.90;;;;;;5115316;28;19968;-72
2022/04/22 01:37:45;;;;;;;;;;;5.80;99.90;;;;;;5115301;28;20328;-72
2022/04/22 01:40:11;;;;;;;;;;;5.80;99.90;;;;;;5115033;28;19924;-72
2022/04/22 01:42:36;;;;;;;;;;;5.80;99.90;;;;;;5115406;28;20240;-72
2022/04/22 01:45:03;;;;;;;;;;;5.90;99.90;;;;;;5115017;28;19912;-73
2022/04/22 01:47:29;;;;;;;;;;;5.80;99.90;;;;;;5096581;28;19915;-73
2022/04/22 01:49:55;;;;;;;;;;;6.60;99.90;;;;;;5114743;28;19935;-72
2022/04/22 01:52:21;;;;;;;;;;;5.80;99.90;;;;;;5114949;28;19912;-73
2022/04/22 01:54:47;;;;;;;;;;;5.70;99.90;;;;;;5096429;28;19912;-73
2022/04/22 01:57:12;;;;;;;;;;;5.80;99.90;;;;;;5114505;28;19916;-72
2022/04/22 01:59:38;;;;;;;;;;;5.70;99.90;;;;;;5114844;28;20242;-73
2022/04/22 02:02:03;;;;;;;;;;;5.80;99.90;;;;;;5096316;28;20007;-73
2022/04/22 02:04:29;;;;;;;;;;;5.70;99.90;;;;;;5114661;28;20400;-73
2022/04/22 02:06:54;;;;;;;;;;;5.70;99.90;;;;;;5114531;28;19911;-73
2022/04/22 02:09:20;;;;;;;;;;;5.70;99.90;;;;;;5114432;28;20352;-73
2022/04/22 02:11:45;;;;;;;;;;;5.70;99.90;;;;;;5114499;28;20097;-73
2022/04/22 02:14:11;;;;;;;;;;;5.70;99.90;;;;;;5114521;28;19930;-72
2022/04/22 02:16:37;;;;;;;;;;;5.70;99.90;;;;;;5096081;28;19919;-73
2022/04/22 02:19:02;;;;;;;;;;;5.70;99.90;;;;;;5114354;28;19908;-72
2022/04/22 02:21:28;;;;;;;;;;;5.70;99.90;;;;;;5112788;28;20016;-73
2022/04/22 02:23:53;;;;;;;;;;;5.70;99.90;;;;;;5114242;28;19918;-72
2022/04/22 02:26:19;;;;;;;;;;;5.70;99.90;;;;;;5095918;28;19916;-72
2022/04/22 02:28:44;;;;;;;;;;;5.70;99.90;;;;;;5114549;28;19912;-73
2022/04/22 02:31:11;;;;;;;;;;;5.70;99.90;;;;;;5093792;28;19957;-73
2022/04/22 02:33:37;;;;;;;;;;;5.80;99.90;;;;;;5104972;28;20363;-72
2022/04/22 02:36:03;;;;;;;;;;;5.80;99.90;;;;;;5113997;28;19973;-72
2022/04/22 02:38:29;;;;;;;;;;;5.80;99.90;;;;;;5113969;28;19930;-72
2022/04/22 02:46:24;;;;;;;;;;;5.80;99.90;;;;;;5114093;28;19919;-72
2022/04/22 02:48:50;;;;;;;;;;;5.80;99.90;;;;;;5095528;28;19911;-72
2022/04/22 02:51:16;;;;;;;;;;;5.90;99.90;;;;;;5095320;28;19919;-72
2022/04/22 02:53:42;;;;;;;;;;;5.80;99.90;;;;;;5095570;28;20379;-73
2022/04/22 02:56:07;;;;;;;;;;;5.90;99.90;;;;;;5113754;28;19907;-72
2022/04/22 02:58:33;;;;;;;;;;;5.80;99.90;;;;;;5095170;28;19915;-72
2022/04/22 03:00:59;;;;;;;;;;;5.90;99.90;;;;;;5113482;28;20295;-72
2022/04/22 03:03:25;;;;;;;;;;;5.80;99.90;;;;;;5095060;28;19912;-72
2022/04/22 03:05:51;;;;;;;;;;;5.80;99.90;;;;;;5113493;28;19973;-72
2022/04/22 03:08:16;;;;;;;;;;;5.90;99.90;;;;;;5113769;28;19919;-72
2022/04/22 03:10:42;;;;;;;;;;;5.90;99.90;;;;;;5113126;28;19920;-73
2022/04/22 03:13:07;;;;;;;;;;;5.90;99.90;;;;;;5113503;28;19916;-72
2022/04/22 03:15:35;;;;;;;;;;;5.90;99.90;;;;;;5113247;28;19908;-72
2022/04/22 03:18:00;;;;;;;;;;;5.80;99.90;;;;;;5094998;28;19920;-72
2022/04/22 03:20:26;;;;;;;;;;;5.90;99.90;;;;;;5113294;28;19985;-72
2022/04/22 03:22:52;;;;;;;;;;;5.90;99.90;;;;;;5113300;28;19920;-73
2022/04/22 03:25:20;;;;;;;;;;;6.00;99.90;;;;;;5113066;28;20447;-73
2022/04/22 03:27:46;;;;;;;;;;;6.00;99.90;;;;;;5094655;28;19916;-72
2022/04/22 03:30:12;;;;;;;;;;;6.00;99.90;;;;;;5094454;28;19915;-72
2022/04/22 03:32:37;;;;;;;;;;;6.00;99.90;;;;;;5094253;28;19920;-72
2022/04/22 03:35:03;;;;;;;;;;;6.00;99.90;;;;;;5094676;28;19952;-73
2022/04/22 03:37:29;;;;;;;;;;;6.00;99.90;;;;;;5094343;28;20425;-72
2022/04/22 03:39:54;;;;;;;;;;;6.00;99.90;;;;;;5112815;28;19908;-72
2022/04/22 03:42:20;;;;;;;;;;;6.00;99.90;;;;;;5112910;28;20448;-73
2022/04/22 03:44:45;;;;;;;;;;;5.90;99.90;;;;;;5094316;28;19912;-72
2022/04/22 03:47:11;;;;;;;;;;;6.00;99.90;;;;;;5094349;28;19930;-73
2022/04/22 03:49:36;;;;;;;;;;;6.00;99.90;;;;;;5112576;28;19908;-72
2022/04/22 03:52:02;;;;;;;;;;;6.00;99.90;;;;;;5112897;28;19915;-73
2022/04/22 03:54:27;;;;;;;;;;;6.00;99.90;;;;;;5112927;28;19914;-72
2022/04/22 03:59:37;;;;;;;;;;;6.00;99.90;;;;;;5112379;28;19953;-72
2022/04/22 04:02:03;;;;;;;;;;;6.10;99.90;;;;;;5112481;28;19920;-72
2022/04/22 04:04:29;;;;;;;;;;;6.00;99.90;;;;;;5112306;28;19908;-72
2022/04/22 04:06:54;;;;;;;;;;;6.10;99.90;;;;;;5112641;28;19916;-72
2022/04/22 04:17:36;;;;;;;;;;;6.10;99.90;;;;;;5112363;28;19966;-72
2022/04/22 04:25:30;;;;;;;;;;;6.10;99.90;;;;;;5111951;28;19919;-71
2022/04/22 04:27:56;;;;;;;;;;;6.20;99.90;;;;;;5112256;28;20267;-71
2022/04/22 04:30:22;;;;;;;;;;;6.30;99.90;;;;;;5093404;28;19942;-71
2022/04/22 04:32:47;;;;;;;;;;;6.20;99.90;;;;;;5112172;28;19915;-71
2022/04/22 04:35:13;;;;;;;;;;;6.20;99.90;;;;;;5111767;28;19956;-72
2022/04/22 04:37:39;;;;;;;;;;;6.20;99.90;;;;;;5111644;28;20367;-71
2022/04/22 04:40:05;;;;;;;;;;;6.20;99.90;;;;;;5111601;28;19912;-71
2022/04/22 04:42:31;;;;;;;;;;;6.20;99.90;;;;;;5093482;28;19935;-71
2022/04/22 04:44:56;;;;;;;;;;;6.30;99.90;;;;;;5092377;28;19915;-71
2022/04/22 04:47:22;;;;;;;;;;;6.30;99.90;;;;;;5112009;28;19970;-73
2022/04/22 04:49:47;;;;;;;;;;;6.30;99.90;;;;;;5111589;28;19957;-71
2022/04/22 04:52:13;;;;;;;;;;;6.30;99.90;;;;;;5093490;28;19930;-72
2022/04/22 04:54:38;;;;;;;;;;;6.30;99.90;;;;;;5111554;28;19908;-71
2022/04/22 04:57:04;;;;;;;;;;;6.30;99.90;;;;;;5093292;28;20014;-72
2022/04/22 04:59:29;;;;;;;;;;;6.30;99.90;;;;;;5093147;28;19955;-71
2022/04/22 05:01:55;;;;;;;;;;;6.30;99.90;;;;;;5111602;28;19916;-71
2022/04/22 05:04:20;;;;;;;;;;;6.40;99.90;;;;;;5111537;28;19908;-72
2022/04/22 05:06:46;;;;;;;;;;;6.40;99.90;;;;;;5111606;28;19916;-72
2022/04/22 05:09:11;;;;;;;;;;;6.50;99.90;;;;;;5111452;28;20363;-72
2022/04/22 05:11:37;;;;;;;;;;;6.40;99.90;;;;;;5111416;28;19924;-71
2022/04/22 05:14:03;;;;;;;;;;;6.40;99.90;;;;;;5111379;28;20363;-72
2022/04/22 05:16:29;;;;;;;;;;;6.50;99.90;;;;;;5111424;28;19922;-71
2022/04/22 05:18:54;;;;;;;;;;;6.50;99.90;;;;;;5093007;28;19908;-71
2022/04/22 05:21:20;;;;;;;;;;;6.50;99.90;;;;;;5111662;28;20256;-71
2022/04/22 05:23:45;;;;;;;;;;;6.80;99.90;;;;;;5111595;28;19908;-71
2022/04/22 05:26:11;;;;;;;;;;;6.50;99.90;;;;;;5092899;28;20271;-71
2022/04/22 05:28:36;;;;;;;;;;;6.80;99.90;;;;;;5111251;28;19914;-72
2022/04/22 05:33:47;;;;;;;;;;;6.60;99.90;;;;;;5111560;28;20275;-72
2022/04/22 05:36:12;;;;;;;;;;;6.60;99.90;;;;;;5092853;28;19915;-73
2022/04/22 05:38:38;;;;;;;;;;;6.60;99.90;;;;;;5111055;28;19911;-72
2022/04/22 05:41:03;;;;;;;;;;;6.60;99.90;;;;;;5092822;28;20022;-72
2022/04/22 05:43:29;;;;;;;;;;;6.70;99.90;;;;;;5092931;28;20391;-72
2022/04/22 05:45:54;;;;;;;;;;;6.60;99.90;;;;;;5111388;28;19918;-73
2022/04/22 05:48:20;;;;;;;;;;;6.60;99.90;;;;;;5111835;28;20405;-72
2022/04/22 05:50:45;;;;;;;;;;;6.60;99.90;;;;;;5111067;28;19918;-72
2022/04/22 05:53:11;;;;;;;;;;;6.60;99.90;;;;;;5111643;28;20080;-72
2022/04/22 05:55:37;;;;;;;;;;;6.70;99.90;;;;;;5112178;28;19967;-72
2022/04/22 05:58:02;;;;;;;;;;;6.60;99.90;;;;;;5115121;28;19920;-72
2022/04/22 06:00:30;;;;;;;;;;;6.60;99.90;;;;;;5114495;28;19916;-72
2022/04/22 06:02:56;;;;;;;;;;;6.70;99.90;;;;;;5115024;28;19919;-71
2022/04/22 06:05:22;;;;;;;;;;;6.70;99.90;;;;;;5114554;28;19907;-72
2022/04/22 06:07:48;;;;;;;;;;;6.70;99.90;;;;;;5096322;28;19916;-72
2022/04/22 06:10:32;;;;;;;;;;;6.70;99.90;;;;;;5095975;28;20291;-71
2022/04/22 06:12:58;;;;;;;;;;;6.80;99.90;;;;;;5096341;28;19916;-71
2022/04/22 06:15:23;;;;;;;;;;;6.80;99.90;;;;;;5096128;28;19908;-71
2022/04/22 06:17:49;;;;;;;;;;;6.90;99.90;;;;;;5096106;28;19976;-71
2022/04/22 06:20:15;;;;;;;;;;;6.90;99.90;;;;;;5095910;28;20356;-71
2022/04/22 06:22:40;;;;;;;;;;;6.80;99.90;;;;;;5096059;28;19919;-72
2022/04/22 06:25:08;;;;;;;;;;;6.90;99.90;;;;;;5114486;28;19957;-71
2022/04/22 06:27:37;;;;;;;;;;;6.90;99.90;;;;;;5114511;28;19961;-72
2022/04/22 06:30:05;;;;;;;;;;;6.90;99.90;;;;;;5114077;28;19908;-71
2022/04/22 06:32:31;;;;;;;;;;;7.00;99.90;;;;;;5114224;28;20011;-71
2022/04/22 06:34:57;;;;;;;;;;;7.00;99.90;;;;;;5114053;28;20427;-72
2022/04/22 06:37:22;;;;;;;;;;;7.00;99.90;;;;;;5114063;28;20010;-72
2022/04/22 06:48:01;;;;;;;;;;;7.00;99.90;;;;;;5114329;28;19934;-73
2022/04/22 06:50:27;;;;;;;;;;;7.00;99.90;;;;;;5113708;28;20328;-73
2022/04/22 06:52:52;;;;;;;;;;;7.00;99.90;;;;;;5114185;28;20367;-73
2022/04/22 06:55:18;;;;;;;;;;;7.00;99.90;;;;;;5114077;28;20325;-72
2022/04/22 06:57:46;;;;;;;;;;;7.00;99.90;;;;;;5113859;28;20010;-72
2022/04/22 07:00:12;;;;;;;;;;;7.00;99.90;;;;;;5095280;28;19916;-73
2022/04/22 07:02:37;;;;;;;;;;;7.10;99.90;;;;;;5113766;28;20252;-73
2022/04/22 07:05:03;;;;;;;;;;;7.10;99.90;;;;;;5113527;28;19997;-72
2022/04/22 07:07:29;;;;;;;;;;;7.00;99.90;;;;;;5112963;28;19961;-72
2022/04/22 07:09:54;;;;;;;;;;;7.10;99.90;;;;;;5113269;28;20352;-72
2022/04/22 07:12:21;;;;;;;;;;;7.10;99.90;;;;;;5113494;28;19965;-72
2022/04/22 07:14:48;;;;;;;;;;;7.10;99.90;;;;;;5113375;28;19908;-72
2022/04/22 07:17:13;;;;;;;;;;;7.00;99.90;;;;;;5113379;28;19923;-72
2022/04/22 07:19:41;;;;;;;;;;;7.10;99.90;;;;;;5113183;28;19907;-72
2022/04/22 07:22:07;;;;;;;;;;;7.20;99.90;;;;;;5113296;28;19915;-71
2022/04/22 07:24:32;;;;;;;;;;;7.20;99.90;;;;;;5113112;28;19908;-72
2022/04/22 07:26:58;;;;;;;;;;;7.20;99.90;;;;;;5094327;28;20026;-72
2022/04/22 07:29:24;;;;;;;;;;;7.30;99.90;;;;;;5112954;28;19930;-73
2022/04/22 07:31:49;;;;;;;;;;;7.30;99.90;;;;;;5112947;28;19920;-73
2022/04/22 07:34:15;;;;;;;;;;;7.30;99.90;;;;;;5112721;28;20314;-73
2022/04/22 07:36:40;;;;;;;;;;;7.40;99.90;;;;;;5112730;28;19923;-73
2022/04/22 07:39:06;;;;;;;;;;;7.40;99.90;;;;;;5112888;28;19985;-73
2022/04/22 07:41:32;;;;;;;;;;;7.40;99.90;;;;;;5112678;28;19922;-72
2022/04/22 07:46:46;;;;;;;;;;;7.40;99.90;;;;;;5112714;28;19923;-73
2022/04/22 07:49:12;;;;;;;;;;;7.40;99.90;;;;;;5112878;28;19919;-72
2022/04/22 07:51:39;;;;;;;;;;;7.40;99.90;;;;;;5112521;28;19915;-72
2022/04/22 07:54:04;;;;;;;;;;;7.50;99.90;;;;;;5112529;28;20044;-73
2022/04/22 07:56:30;;;;;;;;;;;7.50;99.90;;;;;;5112527;28;19966;-71
2022/04/22 07:58:56;;;;;;;;;;;7.60;99.90;;;;;;5093959;28;19907;-74
2022/04/22 08:01:22;;;;;;;;;;;7.60;99.90;;;;;;5112384;28;19915;-72
2022/04/22 08:03:47;;;;;;;;;;;7.60;99.90;;;;;;5112010;28;20321;-71
2022/04/22 08:06:13;;;;;;;;;;;7.70;99.90;;;;;;5112035;28;19911;-72
2022/04/22 08:08:40;;;;;;;;;;;7.60;99.90;;;;;;5112150;28;19908;-72
2022/04/22 08:11:06;;;;;;;;;;;7.60;99.90;;;;;;5093618;28;19926;-72
2022/04/22 08:13:32;;;;;;;;;;;7.60;99.90;;;;;;5093697;28;20006;-71
2022/04/22 08:15:58;;;;;;;;;;;8.10;99.90;;;;;;5111998;28;19961;-71
2022/04/22 08:18:24;;;;;;;;;;;7.70;99.90;;;;;;5111805;28;20287;-71
2022/04/22 08:20:50;;;;;;;;;;;7.70;99.90;;;;;;5111962;28;19911;-72
2022/04/22 08:23:20;;;;;;;;;;;7.70;99.90;;;;;;5093833;28;19918;-72
2022/04/22 08:25:45;;;;;;;;;;;8.20;99.90;;;;;;5111966;28;20351;-71
2022/04/22 08:28:11;;;;;;;;;;;7.70;99.90;;;;;;5112310;28;19946;-72
2022/04/22 08:30:36;;;;;;;;;;;7.70;99.90;;;;;;5111820;28;19912;-72
2022/04/22 08:33:02;;;;;;;;;;;7.70;99.90;;;;;;5112216;28;20396;-72
2022/04/22 08:35:28;;;;;;;;;;;7.70;99.90;;;;;;5111672;28;19918;-72
2022/04/22 08:37:53;;;;;;;;;;;7.70;99.90;;;;;;5111969;28;19942;-72
2022/04/22 08:40:19;;;;;;;;;;;7.70;99.90;;;;;;5111754;28;19911;-72
2022/04/22 08:42:46;;;;;;;;;;;7.70;99.90;;;;;;5111959;28;19981;-74
2022/04/22 08:45:12;;;;;;;;;;;7.60;99.90;;;;;;5093445;28;20305;-73
2022/04/22 08:50:22;;;;;;;;;;;7.60;99.90;;;;;;5111719;28;20389;-73
2022/04/22 08:52:58;;;;;;;;;;;7.60;99.90;;;;;;5111974;28;19911;-73
2022/04/22 08:55:26;;;;;;;;;;;7.60;99.90;;;;;;5111439;28;19962;-71
2022/04/22 08:57:52;;;;;;;;;;;7.60;99.90;;;;;;5111664;28;19916;-74
2022/04/22 09:00:22;;;;;;;;;;;7.60;99.90;;;;;;5111092;28;19919;-73
2022/04/22 09:02:47;;;;;;;;;;;7.50;99.90;;;;;;5093119;28;20009;-73
2022/04/22 09:05:13;;;;;;;;;;;7.50;99.90;;;;;;5111416;28;20375;-72
2022/04/22 09:07:42;;;;;;;;;;;7.60;99.90;;;;;;5111553;28;19978;-73
2022/04/22 09:10:07;;;;;;;;;;;7.60;99.90;;;;;;5092877;28;19926;-73
2022/04/22 09:12:34;;;;;;;;;;;7.60;99.90;;;;;;5111483;28;19916;-73
2022/04/22 09:15:00;;;;;;;;;;;7.60;99.90;;;;;;5111164;28;19912;-73
2022/04/22 09:17:29;;;;;;;;;;;7.60;99.90;;;;;;5111484;28;20311;-73
2022/04/22 09:19:57;;;;;;;;;;;7.60;99.90;;;;;;5111232;28;19927;-73
2022/04/22 09:22:23;;;;;;;;;;;7.60;99.90;;;;;;5111480;28;19920;-73
2022/04/22 09:24:52;;;;;;;;;;;7.70;99.90;;;;;;5111130;28;19962;-72
2022/04/22 09:27:18;;;;;;;;;;;7.60;99.90;;;;;;5111079;28;19923;-73
2022/04/22 09:29:54;;;;;;;;;;;7.70;99.90;;;;;;5111018;28;19907;-73
2022/04/22 09:32:28;;;;;;;;;;;7.70;99.90;;;;;;5096886;28;19916;-73
2022/04/22 09:34:57;;;;;;;;;;;7.70;99.90;;;;;;5114918;28;19907;-73
2022/04/22 09:42:53;;;;;;;;;;;7.80;99.90;;;;;;5115375;28;19970;-72
2022/04/22 09:45:19;;;;;;;;;;;7.80;99.90;;;;;;5096439;28;19955;-73
2022/04/22 09:47:55;;;;;;;;;;;7.80;99.90;;;;;;5115257;28;19924;-72
2022/04/22 09:50:37;;;;;;;;;;;7.80;99.90;;;;;;5096418;28;19959;-73
2022/04/22 09:53:03;;;;;;;;;;;7.80;99.90;;;;;;5115086;28;19915;-73
2022/04/22 09:55:30;;;;;;;;;;;7.90;99.90;;;;;;5114762;28;19980;-72
2022/04/22 09:57:58;;;;;;;;;;;7.90;99.90;;;;;;5115101;28;19920;-73
2022/04/22 10:00:25;;;;;;;;;;;7.90;99.90;;;;;;5114348;28;19908;-73
2022/04/22 10:02:51;;;;;;;;;;;7.90;99.90;;;;;;5115069;28;19927;-73
2022/04/22 10:05:23;;;;;;;;;;;7.90;99.90;;;;;;5114478;28;19915;-73
2022/04/22 10:07:51;;;;;;;;;;;8.00;99.90;;;;;;5114699;28;19916;-73
2022/04/22 10:10:18;;;;;;;;;;;8.00;99.90;;;;;;5114184;28;20386;-72
2022/04/22 10:12:44;;;;;;;;;;;8.00;99.90;;;;;;5114643;28;19923;-73
2022/04/22 10:15:10;;;;;;;;;;;8.00;99.90;;;;;;5114158;28;20329;-73
2022/04/22 10:17:39;;;;;;;;;;;8.00;99.90;;;;;;5114471;28;19920;-73
2022/04/22 10:20:07;;;;;;;;;;;8.00;99.90;;;;;;5114625;28;19908;-72
2022/04/22 10:22:33;;;;;;;;;;;8.00;99.90;;;;;;5114111;28;20291;-73
2022/04/22 10:25:00;;;;;;;;;;;7.90;99.90;;;;;;5114005;28;19908;-73
2022/04/22 10:27:25;;;;;;;;;;;7.90;99.90;;;;;;5095672;28;19915;-73
2022/04/22 10:29:52;;;;;;;;;;;8.00;99.90;;;;;;5095396;28;20370;-72
2022/04/22 10:32:18;;;;;;;;;;;8.00;99.90;;;;;;5095675;28;19955;-72
2022/04/22 10:34:44;;;;;;;;;;;8.00;99.90;;;;;;5113743;28;19907;-73
2022/04/22 10:37:19;;;;;;;;;;;8.10;99.90;;;;;;5114331;28;20064;-72
2022/04/22 10:39:48;;;;;;;;;;;8.10;99.90;;;;;;5113578;28;19943;-72
2022/04/22 10:42:16;;;;;;;;;;;8.10;99.90;;;;;;5112708;28;20014;-72
2022/04/22 10:47:37;;;;;;;;;;;8.20;99.90;;;;;;5114332;28;19968;-71
2022/04/22 10:50:22;;;;;;;;;;;8.20;99.90;;;;;;5095569;28;19951;-72
2022/04/22 10:53:02;;;;;;;;;;;8.20;99.90;;;;;;5114326;28;20346;-72
2022/04/22 10:55:28;;;;;;;;;;;8.30;99.90;;;;;;5113924;28;19922;-71
2022/04/22 10:58:12;;;;;;;;;;;8.30;99.90;;;;;;5113850;28;19959;-72
2022/04/22 11:00:39;;;;;;;;;;;8.40;99.90;;;;;;5113552;28;19939;-71
2022/04/22 11:03:09;;;;;;;;;;;8.40;99.90;;;;;;5095326;28;19922;-72
2022/04/22 11:05:35;;;;;;;;;;;8.40;99.90;;;;;;5113159;28;19957;-71
2022/04/22 11:08:03;;;;;;;;;;;8.40;99.90;;;;;;5095115;28;19916;-72
2022/04/22 11:10:49;;;;;;;;;;;8.40;99.90;;;;;;5094655;28;20398;-72
2022/04/22 11:13:34;;;;;;;;;;;8.40;99.90;;;;;;5084432;28;19916;-71
2022/04/22 11:16:05;;;;;;;;;;;8.50;99.90;;;;;;5113051;28;19915;-71
2022/04/22 11:18:30;;;;;;;;;;;8.50;99.90;;;;;;5113176;28;19922;-72
2022/04/22 11:21:15;;;;;;;;;;;8.50;99.90;;;;;;5112982;28;19994;-72
2022/04/22 11:23:44;;;;;;;;;;;8.60;99.90;;;;;;5113089;28;20415;-71
2022/04/22 11:26:14;;;;;;;;;;;8.50;99.90;;;;;;5112694;28;20338;-72
2022/04/22 11:28:40;;;;;;;;;;;8.60;99.90;;;;;;5112884;28;20236;-74
2022/04/22 11:31:07;;;;;;;;;;;8.70;99.90;;;;;;5112531;28;19912;-74
2022/04/22 11:33:35;;;;;;;;;;;8.70;99.90;;;;;;5113126;28;19908;-73
2022/04/22 11:36:03;;;;;;;;;;;8.70;99.90;;;;;;5112676;28;19961;-73
2022/04/22 11:38:29;;;;;;;;;;;10.20;99.90;;;;;;5112864;28;19911;-73
2022/04/22 11:40:54;;;;;;;;;;;8.70;99.90;;;;;;5112487;28;19919;-73
2022/04/22 11:43:21;;;;;;;;;;;8.70;99.90;;;;;;5113193;28;19969;-73
2022/04/22 11:45:47;;;;;;;;;;;8.80;99.90;;;;;;5112467;28;19908;-72
2022/04/22 11:48:13;;;;;;;;;;;8.80;99.90;;;;;;5113013;28;19916;-73
2022/04/22 11:50:40;;;;;;;;;;;8.80;99.90;;;;;;5112320;28;19939;-72
2022/04/22 11:53:18;;;;;;;;;;;8.80;99.90;;;;;;5093982;28;19916;-73
2022/04/22 11:55:45;;;;;;;;;;;8.80;99.90;;;;;;5094376;28;20446;-73
2022/04/22 11:58:10;;;;;;;;;;;8.90;99.90;;;;;;5112931;28;19963;-73
2022/04/22 12:06:12;;;;;;;;;;;9.00;99.90;;;;;;5112758;28;20011;-73
2022/04/22 12:08:50;;;;;;;;;;;9.10;99.90;;;;;;5093895;28;20339;-73
2022/04/22 12:11:16;;;;;;;;;;;9.10;99.90;;;;;;5111971;28;19935;-72
2022/04/22 12:13:41;;;;;;;;;;;9.20;99.90;;;;;;5093959;28;19912;-72
2022/04/22 12:16:07;;;;;;;;;;;9.20;99.90;;;;;;5112138;28;19956;-74
2022/04/22 12:18:32;;;;;;;;;;;9.30;99.90;;;;;;5112233;28;20022;-74
2022/04/22 12:20:58;;;;;;;;;;;9.40;99.90;;;;;;5112073;28;20382;-71
2022/04/22 12:23:31;;;;;;;;;;;9.50;99.90;;;;;;5112447;28;19912;-73
2022/04/22 12:25:57;;;;;;;;;;;9.50;99.90;;;;;;5111748;28;20494;-71
2022/04/22 12:28:23;;;;;;;;;;;9.60;99.90;;;;;;5111873;28;20010;-72
2022/04/22 12:30:48;;;;;;;;;;;9.60;99.90;;;;;;5111582;28;19994;-72
2022/04/22 12:33:18;;;;;;;;;;;9.60;99.90;;;;;;5112347;28;19958;-73
2022/04/22 12:35:45;;;;;;;;;;;9.60;99.90;;;;;;5111773;28;20397;-74
2022/04/22 12:38:12;;;;;;;;;;;9.70;99.90;;;;;;5112090;28;19919;-74
2022/04/22 12:40:48;;;;;;;;;;;9.60;99.90;;;;;;5111635;28;19919;-73
2022/04/22 12:43:31;;;;;;;;;;;9.80;99.90;;;;;;5111698;28;19911;-73
2022/04/22 12:52:09;;;;;;;;;;;9.80;99.90;;;;;;5112102;28;19961;-73
2022/04/22 12:54:39;;;;;;;;;;;9.90;99.90;;;;;;5111721;28;19981;-73
2022/04/22 12:57:07;;;;;;;;;;;10.00;99.90;;;;;;5111690;28;19919;-73
2022/04/22 12:59:39;;;;;;;;;;;10.00;99.90;;;;;;5111636;28;20359;-73
2022/04/22 13:02:05;;;;;;;;;;;10.00;99.90;;;;;;5111903;28;19912;-73
2022/04/22 13:04:31;;;;;;;;;;;10.00;99.90;;;;;;5111894;28;20455;-73
2022/04/22 13:06:56;;;;;;;;;;;10.00;99.90;;;;;;5115351;28;20014;-73
2022/04/22 13:09:23;;;;;;;;;;;10.10;99.90;;;;;;5097401;28;19911;-73
2022/04/22 13:11:51;;;;;;;;;;;10.10;99.90;;;;;;5115922;28;19923;-74
2022/04/22 13:14:17;;;;;;;;;;;10.10;99.90;;;;;;5115920;28;19989;-74
2022/04/22 13:16:45;;;;;;;;;;;10.10;99.90;;;;;;5115716;28;19915;-73
2022/04/22 13:19:11;;;;;;;;;;;10.10;99.90;;;;;;5115462;28;19934;-73
2022/04/22 13:21:37;;;;;;;;;;;10.20;99.90;;;;;;5115242;28;20430;-73
2022/04/22 13:24:02;;;;;;;;;;;10.50;99.90;;;;;;5115451;28;20420;-73
2022/04/22 13:26:28;;;;;;;;;;;10.30;99.90;;;;;;5115369;28;19955;-73
2022/04/22 13:28:55;;;;;;;;;;;10.40;99.90;;;;;;5115291;28;20359;-73
2022/04/22 13:31:22;;;;;;;;;;;10.40;99.90;;;;;;5115174;28;20014;-73
2022/04/22 13:33:48;;;;;;;;;;;10.40;99.90;;;;;;5115306;28;20382;-73
2022/04/22 13:36:14;;;;;;;;;;;10.30;99.90;;;;;;5115387;28;19951;-73
2022/04/22 13:38:40;;;;;;;;;;;10.40;99.90;;;;;;5096871;28;20264;-73
2022/04/22 13:41:05;;;;;;;;;;;10.40;99.90;;;;;;5114959;28;19958;-71
2022/04/22 13:43:31;;;;;;;;;;;10.40;99.90;;;;;;5114906;28;19994;-72
2022/04/22 13:54:15;;;;;;;;;;;10.50;99.90;;;;;;5114761;28;19999;-73
2022/04/22 13:56:40;;;;;;;;;;;10.50;99.90;;;;;;5096267;28;20007;-73
2022/04/22 13:59:06;;;;;;;;;;;10.40;99.90;;;;;;5114657;28;19961;-73
2022/04/22 14:01:31;;;;;;;;;;;10.50;99.90;;;;;;5114716;28;19920;-73
2022/04/22 14:03:57;;;;;;;;;;;10.50;99.90;;;;;;5114459;28;19915;-73
2022/04/22 14:06:22;;;;;;;;;;;10.50;99.90;;;;;;5096183;28;19926;-72
2022/04/22 14:08:48;;;;;;;;;;;10.60;99.90;;;;;;5114381;28;19907;-72
2022/04/22 14:11:14;;;;;;;;;;;10.60;99.90;;;;;;5114266;28;20412;-72
2022/04/22 14:13:40;;;;;;;;;;;10.60;99.90;;;;;;5114454;28;19912;-72
2022/04/22 14:16:05;;;;;;;;;;;10.60;99.90;;;;;;5114492;28;20006;-72
2022/04/22 14:18:31;;;;;;;;;;;10.70;99.90;;;;;;5114404;28;19919;-72
2022/04/22 14:21:00;;;;;;;;;;;10.70;99.90;;;;;;5095976;28;19908;-72
2022/04/22 14:23:26;;;;;;;;;;;10.60;99.90;;;;;;5114358;28;20053;-72
2022/04/22 14:25:55;;;;;;;;;;;10.60;99.90;;;;;;5114243;28;20390;-72
2022/04/22 14:28:22;;;;;;;;;;;10.60;99.90;;;;;;5114888;28;19918;-73
2022/04/22 14:30:48;;;;;;;;;;;10.60;99.90;;;;;;5095998;28;20012;-73
2022/04/22 14:33:13;;;;;;;;;;;10.60;99.90;;;;;;5114852;28;19957;-73
2022/04/22 14:35:39;;;;;;;;;;;10.60;99.90;;;;;;5095894;28;20028;-72
2022/04/22 14:38:04;;;;;;;;;;;10.50;99.90;;;;;;5095824;28;20062;-72
2022/04/22 14:40:30;;;;;;;;;;;10.50;99.90;;;;;;5114224;28;19937;-72
2022/04/22 14:42:55;;;;;;;;;;;10.60;99.90;;;;;;5114516;28;19912;-73
2022/04/22 14:45:21;;;;;;;;;;;10.60;99.90;;;;;;5114345;28;19916;-72
2022/04/22 14:47:46;;;;;;;;;;;10.60;99.90;;;;;;5113859;28;20282;-72
2022/04/22 14:50:12;;;;;;;;;;;10.70;99.90;;;;;;5114516;28;19919;-72
2022/04/22 14:52:37;;;;;;;;;;;10.70;99.90;;;;;;5114058;28;19911;-72
2022/04/22 14:55:03;;;;;;;;;;;10.60;99.90;;;;;;5113585;28;19916;-72
2022/04/22 14:57:29;;;;;;;;;;;10.60;99.90;;;;;;5095302;28;19938;-73
2022/04/22 14:59:54;;;;;;;;;;;10.60;99.90;;;;;;5095057;28;19916;-72
2022/04/22 15:02:20;;;;;;;;;;;10.70;99.90;;;;;;5095246;28;19919;-73
2022/04/22 15:04:45;;;;;;;;;;;10.70;99.90;;;;;;5113299;28;20375;-72
2022/04/22 15:07:11;;;;;;;;;;;10.70;99.90;;;;;;5113671;28;19976;-74
2022/04/22 15:09:39;;;;;;;;;;;10.70;99.90;;;;;;5113090;28;19918;-73
2022/04/22 15:12:06;;;;;;;;;;;10.70;99.90;;;;;;5113525;28;19931;-73
2022/04/22 15:14:31;;;;;;;;;;;10.60;99.90;;;;;;5095150;28;20003;-73
2022/04/22 15:16:57;;;;;;;;;;;10.60;99.90;;;;;;5094551;28;19951;-73
2022/04/22 15:24:50;;;;;;;;;;;10.60;99.90;;;;;;5113309;28;19919;-73
2022/04/22 15:27:17;;;;;;;;;;;11.50;99.90;;;;;;5094857;28;20283;-73
2022/04/22 15:29:42;;;;;;;;;;;10.60;99.90;;;;;;5112339;28;20283;-73
2022/04/22 15:32:08;;;;;;;;;;;10.60;99.90;;;;;;5113283;28;19965;-74
2022/04/22 15:34:34;;;;;;;;;;;10.50;99.90;;;;;;5113023;28;19914;-73
2022/04/22 15:37:01;;;;;;;;;;;10.50;99.90;;;;;;5112925;28;19923;-73
2022/04/22 15:39:27;;;;;;;;;;;10.50;99.90;;;;;;5112619;28;19919;-73
2022/04/22 15:41:53;;;;;;;;;;;10.50;99.90;;;;;;5112768;28;19920;-74
2022/04/22 15:44:26;;;;;;;;;;;10.50;99.90;;;;;;5094298;28;19934;-72